Terminal Aerodrome Forecast
Issued by NWS Columbia, SC

Home | Current Version | Previous Version | Text Only | Print | Product List | Glossary On
Versions: 1 2 3 4 5 6 7 8 9 10 11 12 13 14 15 16 17 18 19 20 21 22 23 24 25 26 27
581
FTUS42 KCAE 290227 AAA
TAFCAE
TAF AMD
KCAE 290227Z 2902/2924 05008KT P6SM VCSH SCT035 OVC070
     FM290500 02005KT 5SM -SHRA BR BKN025 OVC040
     FM291400 35009G17KT 4SM SHRA BR SCT015 OVC030=

USA.gov is the U.S. government's official web portal to all federal, state and local government web resources and services.